F/V Jeremi Simon — FHAF — position and weather

sailwx.info

Track history (hours):
 
Tides and Currents Weather Stations Pressure Air Temp Water Temp Dewpoint Dewpoint Depression Visibility Wind Speed Wind Dir Waves Ship Positions

F/V Jeremi Simon

Last reported at 2017-Aug-22 15:28 UTC. Time now 2017-Aug-23 00:35 UTC.
Position N 46°42' W 001°56'.

Length 20 m.

Type: Other ship. MMSI: 227415000.

Date/timePositionNaut miles runAvg speedWind from/ knotsBaromVisibWave heightAir tempDewpointWater temp
2017-Aug-22 15:28N 46°42' W 001°56'0 0.2
2017-Aug-22 15:00N 46°42' W 001°57'0 0.0
2017-Aug-22 14:30N 46°42' W 001°57'0 0.0
2017-Aug-22 14:00N 46°42' W 001°57'4 8.0
2017-Aug-22 13:30N 46°38' W 001°56'510.5
2017-Aug-22 13:00N 46°33' W 001°53'5 9.8
2017-Aug-22 12:30N 46°29' W 001°49'2 3.9
2017-Aug-22 12:00N 46°30' W 001°47'0 0.0
2017-Aug-22 11:30N 46°30' W 001°47'0 0.0
2017-Aug-22 11:00N 46°30' W 001°47'0 0.0
2017-Aug-22 10:30N 46°30' W 001°47'0 0.0
2017-Aug-22 10:00N 46°30' W 001°47'0 0.0
2017-Aug-22 09:30N 46°30' W 001°47'0 0.0
2017-Aug-22 09:00N 46°30' W 001°47'0 0.0
2017-Aug-22 08:30N 46°30' W 001°47'0 0.0
2017-Aug-22 08:00N 46°30' W 001°47'0 0.0
2017-Aug-22 07:30N 46°30' W 001°47'0 0.0
2017-Aug-22 07:00N 46°30' W 001°47'3 6.3
2017-Aug-22 06:30N 46°27' W 001°50'5 9.8
2017-Aug-22 06:00N 46°25' W 001°56'5 9.7
2017-Aug-22 05:30N 46°22' W 002°02'5 9.7
2017-Aug-22 05:00N 46°20' W 002°08'236 9.1
2017-Aug-21 03:00N 44°08' W 006°46'4 1.6
2017-Aug-21 00:50N 44°05' W 006°46'1 2.5
2017-Aug-21 00:16N 44°05' W 006°44'1 2.8
2017-Aug-20 23:45N 44°07' W 006°44'  
2017-Aug-15 01:36N 45°56' W 003°43'1 9.6
2017-Aug-15 01:30N 45°57' W 003°42'6110.3
2017-Aug-14 19:37N 46°28' W 002°27'110.3
2017-Aug-14 19:30N 46°29' W 002°26'510.2
2017-Aug-14 19:00N 46°31' W 002°20'6 9.7
2017-Aug-14 18:23N 46°35' W 002°12'4 9.8
2017-Aug-14 18:00N 46°36' W 002°08'510.1
2017-Aug-14 17:30N 46°39' W 002°01'4 0.4
2017-Aug-14 06:42N 46°42' W 001°56'0 0.0
2017-Aug-14 06:24N 46°42' W 001°56'0 0.0
2017-Aug-13 17:15N 46°42' W 001°56'0 0.3
2017-Aug-13 17:00N 46°42' W 001°57'0 0.2
2017-Aug-13 16:30N 46°42' W 001°57'0 0.0
2017-Aug-13 16:00N 46°42' W 001°57'2 3.6
2017-Aug-13 15:30N 46°40' W 001°58'510.1
2017-Aug-13 15:00N 46°36' W 002°01'5 9.7
2017-Aug-13 14:30N 46°31' W 002°04'3 6.0
2017-Aug-13 14:00N 46°28' W 002°05'1 2.0
2017-Aug-13 13:30N 46°27' W 002°04'1 2.0
2017-Aug-13 13:00N 46°28' W 002°05'2 3.9
2017-Aug-13 12:30N 46°26' W 002°04'1 2.8
2017-Aug-13 12:00N 46°28' W 002°04'2 4.5
2017-Aug-13 11:30N 46°27' W 002°02'1 2.3
2017-Aug-13 11:00N 46°28' W 002°01'1 1.9
2017-Aug-13 10:30N 46°27' W 002°02'1 1.9
2017-Aug-13 10:00N 46°26' W 002°01'2 4.3
2017-Aug-13 09:30N 46°28' W 002°03'1 2.6
2017-Aug-13 09:00N 46°28' W 002°05'2 4.5
2017-Aug-13 08:30N 46°27' W 002°02'1 1.3
2017-Aug-13 07:59N 46°28' W 002°02'2 4.5
2017-Aug-13 07:30N 46°29' W 002°05'2 4.6
2017-Aug-13 07:00N 46°30' W 002°08'3 4.8
2017-Aug-13 06:24N 46°33' W 002°10'1 1.5
2017-Aug-13 06:00N 46°32' W 002°09'1 2.1
2017-Aug-13 05:30N 46°31' W 002°08'2 4.4
2017-Aug-13 05:00N 46°33' W 002°10'2 3.0
2017-Aug-13 04:29N 46°33' W 002°08'5 9.5
2017-Aug-13 04:00N 46°37' W 002°04'5 9.8
2017-Aug-13 03:30N 46°40' W 001°59'  
Track history (hours):
 
Tides and Currents Weather Stations Pressure Air Temp Water Temp Dewpoint Dewpoint Depression Visibility Wind Speed Wind Dir Waves Ship Positions

F/V Jeremi Simon

Last reported at 2017-Aug-22 15:28 UTC. Time now 2017-Aug-23 00:35 UTC.
Position N 46°42' W 001°56'.

Length 20 m.

Type: Other ship. MMSI: 227415000.

Date/timePositionNaut miles runAvg speedWind from/ knotsBaromVisibWave heightAir tempDewpointWater temp
2017-Aug-22 15:28N 46°42' W 001°56'0 0.2
2017-Aug-22 15:00N 46°42' W 001°57'0 0.0
2017-Aug-22 14:30N 46°42' W 001°57'0 0.0
2017-Aug-22 14:00N 46°42' W 001°57'4 8.0
2017-Aug-22 13:30N 46°38' W 001°56'510.5
2017-Aug-22 13:00N 46°33' W 001°53'5 9.8
2017-Aug-22 12:30N 46°29' W 001°49'2 3.9
2017-Aug-22 12:00N 46°30' W 001°47'0 0.0
2017-Aug-22 11:30N 46°30' W 001°47'0 0.0
2017-Aug-22 11:00N 46°30' W 001°47'0 0.0
2017-Aug-22 10:30N 46°30' W 001°47'0 0.0
2017-Aug-22 10:00N 46°30' W 001°47'0 0.0
2017-Aug-22 09:30N 46°30' W 001°47'0 0.0
2017-Aug-22 09:00N 46°30' W 001°47'0 0.0
2017-Aug-22 08:30N 46°30' W 001°47'0 0.0
2017-Aug-22 08:00N 46°30' W 001°47'0 0.0
2017-Aug-22 07:30N 46°30' W 001°47'0 0.0
2017-Aug-22 07:00N 46°30' W 001°47'3 6.3
2017-Aug-22 06:30N 46°27' W 001°50'5 9.8
2017-Aug-22 06:00N 46°25' W 001°56'5 9.7
2017-Aug-22 05:30N 46°22' W 002°02'5 9.7
2017-Aug-22 05:00N 46°20' W 002°08'236 9.1
2017-Aug-21 03:00N 44°08' W 006°46'4 1.6
2017-Aug-21 00:50N 44°05' W 006°46'1 2.5
2017-Aug-21 00:16N 44°05' W 006°44'1 2.8
2017-Aug-20 23:45N 44°07' W 006°44'  
2017-Aug-15 01:36N 45°56' W 003°43'1 9.6
2017-Aug-15 01:30N 45°57' W 003°42'6110.3
2017-Aug-14 19:37N 46°28' W 002°27'110.3
2017-Aug-14 19:30N 46°29' W 002°26'510.2
2017-Aug-14 19:00N 46°31' W 002°20'6 9.7
2017-Aug-14 18:23N 46°35' W 002°12'4 9.8
2017-Aug-14 18:00N 46°36' W 002°08'510.1
2017-Aug-14 17:30N 46°39' W 002°01'4 0.4
2017-Aug-14 06:42N 46°42' W 001°56'0 0.0
2017-Aug-14 06:24N 46°42' W 001°56'0 0.0
2017-Aug-13 17:15N 46°42' W 001°56'0 0.3
2017-Aug-13 17:00N 46°42' W 001°57'0 0.2
2017-Aug-13 16:30N 46°42' W 001°57'0 0.0
2017-Aug-13 16:00N 46°42' W 001°57'2 3.6
2017-Aug-13 15:30N 46°40' W 001°58'510.1
2017-Aug-13 15:00N 46°36' W 002°01'5 9.7
2017-Aug-13 14:30N 46°31' W 002°04'3 6.0
2017-Aug-13 14:00N 46°28' W 002°05'1 2.0
2017-Aug-13 13:30N 46°27' W 002°04'1 2.0
2017-Aug-13 13:00N 46°28' W 002°05'2 3.9
2017-Aug-13 12:30N 46°26' W 002°04'1 2.8
2017-Aug-13 12:00N 46°28' W 002°04'2 4.5
2017-Aug-13 11:30N 46°27' W 002°02'1 2.3
2017-Aug-13 11:00N 46°28' W 002°01'1 1.9
2017-Aug-13 10:30N 46°27' W 002°02'1 1.9
2017-Aug-13 10:00N 46°26' W 002°01'2 4.3
2017-Aug-13 09:30N 46°28' W 002°03'1 2.6
2017-Aug-13 09:00N 46°28' W 002°05'2 4.5
2017-Aug-13 08:30N 46°27' W 002°02'1 1.3
2017-Aug-13 07:59N 46°28' W 002°02'2 4.5
2017-Aug-13 07:30N 46°29' W 002°05'2 4.6
2017-Aug-13 07:00N 46°30' W 002°08'3 4.8
2017-Aug-13 06:24N 46°33' W 002°10'1 1.5
2017-Aug-13 06:00N 46°32' W 002°09'1 2.1
2017-Aug-13 05:30N 46°31' W 002°08'2 4.4
2017-Aug-13 05:00N 46°33' W 002°10'2 3.0
2017-Aug-13 04:29N 46°33' W 002°08'5 9.5
2017-Aug-13 04:00N 46°37' W 002°04'5 9.8
2017-Aug-13 03:30N 46°40' W 001°59'  

Dump ship's entire track history